sensor_id;sensor_type;location;lat;lon;timestamp;P1;durP1;ratioP1;P2;durP2;ratioP2
68800;SDS011;55784;50.734;7.086;2023-03-09T00:00:55;16.47;;;6.60;;
68800;SDS011;55784;50.734;7.086;2023-03-09T00:03:21;15.18;;;6.60;;
68800;SDS011;55784;50.734;7.086;2023-03-09T00:05:51;14.18;;;6.32;;
68800;SDS011;55784;50.734;7.086;2023-03-09T00:08:19;14.25;;;6.43;;
68800;SDS011;55784;50.734;7.086;2023-03-09T00:10:44;15.60;;;7.27;;
68800;SDS011;55784;50.734;7.086;2023-03-09T00:13:09;13.73;;;6.22;;
68800;SDS011;55784;50.734;7.086;2023-03-09T00:15:35;13.80;;;6.53;;
68800;SDS011;55784;50.734;7.086;2023-03-09T00:18:00;14.90;;;6.43;;
68800;SDS011;55784;50.734;7.086;2023-03-09T00:20:26;14.50;;;6.50;;
68800;SDS011;55784;50.734;7.086;2023-03-09T00:22:52;15.10;;;6.97;;
68800;SDS011;55784;50.734;7.086;2023-03-09T00:25:19;17.52;;;7.32;;
68800;SDS011;55784;50.734;7.086;2023-03-09T00:27:48;18.13;;;6.90;;
68800;SDS011;55784;50.734;7.086;2023-03-09T00:30:15;15.85;;;6.65;;
68800;SDS011;55784;50.734;7.086;2023-03-09T00:32:41;14.63;;;6.60;;
68800;SDS011;55784;50.734;7.086;2023-03-09T00:35:07;15.03;;;6.50;;
68800;SDS011;55784;50.734;7.086;2023-03-09T00:37:33;15.68;;;6.90;;
68800;SDS011;55784;50.734;7.086;2023-03-09T00:39:59;16.65;;;7.38;;
68800;SDS011;55784;50.734;7.086;2023-03-09T00:42:25;16.87;;;7.00;;
68800;SDS011;55784;50.734;7.086;2023-03-09T00:44:50;17.17;;;7.50;;
68800;SDS011;55784;50.734;7.086;2023-03-09T00:47:16;19.30;;;7.90;;
68800;SDS011;55784;50.734;7.086;2023-03-09T00:49:42;16.60;;;7.68;;
68800;SDS011;55784;50.734;7.086;2023-03-09T00:52:07;16.90;;;7.60;;
68800;SDS011;55784;50.734;7.086;2023-03-09T00:54:33;18.87;;;7.60;;
68800;SDS011;55784;50.734;7.086;2023-03-09T00:56:58;19.23;;;7.60;;
68800;SDS011;55784;50.734;7.086;2023-03-09T00:59:27;20.17;;;8.30;;
68800;SDS011;55784;50.734;7.086;2023-03-09T01:01:53;19.23;;;8.38;;
68800;SDS011;55784;50.734;7.086;2023-03-09T01:04:18;21.37;;;8.93;;
68800;SDS011;55784;50.734;7.086;2023-03-09T01:06:43;18.87;;;8.27;;
68800;SDS011;55784;50.734;7.086;2023-03-09T01:09:09;21.73;;;9.10;;
68800;SDS011;55784;50.734;7.086;2023-03-09T01:11:34;20.05;;;8.90;;
68800;SDS011;55784;50.734;7.086;2023-03-09T01:14:00;22.38;;;8.70;;
68800;SDS011;55784;50.734;7.086;2023-03-09T01:16:26;19.45;;;8.25;;
68800;SDS011;55784;50.734;7.086;2023-03-09T01:18:51;18.67;;;8.40;;
68800;SDS011;55784;50.734;7.086;2023-03-09T01:21:17;19.03;;;8.33;;
68800;SDS011;55784;50.734;7.086;2023-03-09T01:23:42;18.63;;;8.13;;
68800;SDS011;55784;50.734;7.086;2023-03-09T01:26:08;20.00;;;8.35;;
68800;SDS011;55784;50.734;7.086;2023-03-09T01:28:33;18.60;;;8.13;;
68800;SDS011;55784;50.734;7.086;2023-03-09T01:30:59;20.17;;;8.30;;
68800;SDS011;55784;50.734;7.086;2023-03-09T01:33:26;19.13;;;8.40;;
68800;SDS011;55784;50.734;7.086;2023-03-09T01:35:51;19.73;;;8.60;;
68800;SDS011;55784;50.734;7.086;2023-03-09T01:38:17;20.77;;;8.30;;
68800;SDS011;55784;50.734;7.086;2023-03-09T01:40:46;19.93;;;8.50;;
68800;SDS011;55784;50.734;7.086;2023-03-09T01:48:47;17.40;;;7.95;;
68800;SDS011;55784;50.734;7.086;2023-03-09T01:51:15;16.95;;;7.80;;
68800;SDS011;55784;50.734;7.086;2023-03-09T01:53:42;16.40;;;7.60;;
68800;SDS011;55784;50.734;7.086;2023-03-09T01:56:08;18.35;;;8.00;;
68800;SDS011;55784;50.734;7.086;2023-03-09T01:58:35;17.95;;;8.27;;
68800;SDS011;55784;50.734;7.086;2023-03-09T02:01:01;16.25;;;7.45;;
68800;SDS011;55784;50.734;7.086;2023-03-09T02:03:27;18.00;;;8.03;;
68800;SDS011;55784;50.734;7.086;2023-03-09T02:08:36;18.85;;;7.32;;
68800;SDS011;55784;50.734;7.086;2023-03-09T02:11:07;18.23;;;7.72;;
68800;SDS011;55784;50.734;7.086;2023-03-09T02:13:35;18.50;;;7.82;;
68800;SDS011;55784;50.734;7.086;2023-03-09T02:16:04;17.07;;;7.10;;
68800;SDS011;55784;50.734;7.086;2023-03-09T02:18:29;17.08;;;7.30;;
68800;SDS011;55784;50.734;7.086;2023-03-09T02:21:09;15.27;;;6.43;;
68800;SDS011;55784;50.734;7.086;2023-03-09T02:29:08;14.50;;;5.88;;
68800;SDS011;55784;50.734;7.086;2023-03-09T02:31:34;14.47;;;6.10;;
68800;SDS011;55784;50.734;7.086;2023-03-09T02:34:00;14.38;;;6.10;;
68800;SDS011;55784;50.734;7.086;2023-03-09T02:36:25;14.10;;;5.37;;
68800;SDS011;55784;50.734;7.086;2023-03-09T02:38:51;13.98;;;5.55;;
68800;SDS011;55784;50.734;7.086;2023-03-09T02:41:17;13.07;;;5.13;;
68800;SDS011;55784;50.734;7.086;2023-03-09T02:43:50;13.00;;;5.30;;
68800;SDS011;55784;50.734;7.086;2023-03-09T02:46:19;13.95;;;5.30;;
68800;SDS011;55784;50.734;7.086;2023-03-09T02:48:45;11.73;;;4.67;;
68800;SDS011;55784;50.734;7.086;2023-03-09T02:51:10;14.43;;;5.33;;
68800;SDS011;55784;50.734;7.086;2023-03-09T02:53:36;13.10;;;5.07;;
68800;SDS011;55784;50.734;7.086;2023-03-09T02:56:01;14.83;;;5.60;;
68800;SDS011;55784;50.734;7.086;2023-03-09T02:58:27;12.18;;;4.93;;
68800;SDS011;55784;50.734;7.086;2023-03-09T03:00:53;13.57;;;4.93;;
68800;SDS011;55784;50.734;7.086;2023-03-09T03:03:18;13.32;;;4.55;;
68800;SDS011;55784;50.734;7.086;2023-03-09T03:05:45;12.02;;;4.70;;
68800;SDS011;55784;50.734;7.086;2023-03-09T03:08:11;11.10;;;4.40;;
68800;SDS011;55784;50.734;7.086;2023-03-09T03:10:36;11.70;;;4.60;;
68800;SDS011;55784;50.734;7.086;2023-03-09T03:13:01;11.93;;;4.82;;
68800;SDS011;55784;50.734;7.086;2023-03-09T03:15:27;12.73;;;4.57;;
68800;SDS011;55784;50.734;7.086;2023-03-09T03:17:52;11.53;;;4.23;;
68800;SDS011;55784;50.734;7.086;2023-03-09T03:20:17;12.37;;;4.67;;
68800;SDS011;55784;50.734;7.086;2023-03-09T03:22:43;12.37;;;4.50;;
68800;SDS011;55784;50.734;7.086;2023-03-09T03:25:09;10.50;;;3.85;;
68800;SDS011;55784;50.734;7.086;2023-03-09T03:27:35;11.55;;;4.65;;
68800;SDS011;55784;50.734;7.086;2023-03-09T03:30:00;11.60;;;4.30;;
68800;SDS011;55784;50.734;7.086;2023-03-09T03:32:27;11.18;;;4.22;;
68800;SDS011;55784;50.734;7.086;2023-03-09T03:34:52;11.90;;;4.70;;
68800;SDS011;55784;50.734;7.086;2023-03-09T03:37:17;12.27;;;4.40;;
68800;SDS011;55784;50.734;7.086;2023-03-09T03:39:43;14.17;;;4.90;;
68800;SDS011;55784;50.734;7.086;2023-03-09T03:42:08;12.05;;;4.78;;
68800;SDS011;55784;50.734;7.086;2023-03-09T03:44:33;12.60;;;5.17;;
68800;SDS011;55784;50.734;7.086;2023-03-09T03:46:59;13.97;;;5.17;;
68800;SDS011;55784;50.734;7.086;2023-03-09T03:49:24;14.93;;;6.17;;
68800;SDS011;55784;50.734;7.086;2023-03-09T03:51:49;15.80;;;6.10;;
68800;SDS011;55784;50.734;7.086;2023-03-09T03:54:15;15.93;;;6.47;;
68800;SDS011;55784;50.734;7.086;2023-03-09T03:56:40;16.67;;;6.97;;
68800;SDS011;55784;50.734;7.086;2023-03-09T03:59:05;18.93;;;7.87;;
68800;SDS011;55784;50.734;7.086;2023-03-09T04:01:31;19.45;;;8.73;;
68800;SDS011;55784;50.734;7.086;2023-03-09T04:03:56;21.37;;;9.00;;
68800;SDS011;55784;50.734;7.086;2023-03-09T04:06:21;20.90;;;8.50;;
68800;SDS011;55784;50.734;7.086;2023-03-09T04:08:47;21.23;;;9.60;;
68800;SDS011;55784;50.734;7.086;2023-03-09T04:11:13;22.77;;;9.43;;
68800;SDS011;55784;50.734;7.086;2023-03-09T04:13:38;25.10;;;10.57;;
68800;SDS011;55784;50.734;7.086;2023-03-09T04:16:03;24.20;;;10.50;;
68800;SDS011;55784;50.734;7.086;2023-03-09T04:18:29;27.17;;;10.37;;
68800;SDS011;55784;50.734;7.086;2023-03-09T04:20:54;25.40;;;9.60;;
68800;SDS011;55784;50.734;7.086;2023-03-09T04:23:19;26.30;;;10.53;;
68800;SDS011;55784;50.734;7.086;2023-03-09T04:25:52;24.57;;;9.50;;
68800;SDS011;55784;50.734;7.086;2023-03-09T04:28:19;22.92;;;9.05;;
68800;SDS011;55784;50.734;7.086;2023-03-09T04:30:44;24.90;;;8.67;;
68800;SDS011;55784;50.734;7.086;2023-03-09T04:33:10;23.83;;;9.20;;
68800;SDS011;55784;50.734;7.086;2023-03-09T04:35:35;22.70;;;8.77;;
68800;SDS011;55784;50.734;7.086;2023-03-09T04:38:00;24.23;;;9.93;;
68800;SDS011;55784;50.734;7.086;2023-03-09T04:40:26;20.97;;;8.77;;
68800;SDS011;55784;50.734;7.086;2023-03-09T04:42:51;24.30;;;9.40;;
68800;SDS011;55784;50.734;7.086;2023-03-09T04:45:16;22.67;;;8.57;;
68800;SDS011;55784;50.734;7.086;2023-03-09T04:47:42;22.37;;;9.13;;
68800;SDS011;55784;50.734;7.086;2023-03-09T04:50:08;23.70;;;9.23;;
68800;SDS011;55784;50.734;7.086;2023-03-09T04:52:34;22.25;;;8.77;;
68800;SDS011;55784;50.734;7.086;2023-03-09T04:54:59;21.53;;;8.57;;
68800;SDS011;55784;50.734;7.086;2023-03-09T04:57:24;23.77;;;8.90;;
68800;SDS011;55784;50.734;7.086;2023-03-09T04:59:51;25.38;;;9.73;;
68800;SDS011;55784;50.734;7.086;2023-03-09T05:02:16;24.47;;;9.40;;
68800;SDS011;55784;50.734;7.086;2023-03-09T05:04:42;26.83;;;9.57;;
68800;SDS011;55784;50.734;7.086;2023-03-09T05:07:07;25.77;;;9.20;;
68800;SDS011;55784;50.734;7.086;2023-03-09T05:09:32;26.23;;;10.20;;
68800;SDS011;55784;50.734;7.086;2023-03-09T05:11:58;27.63;;;10.57;;
68800;SDS011;55784;50.734;7.086;2023-03-09T05:14:23;29.13;;;9.77;;
68800;SDS011;55784;50.734;7.086;2023-03-09T05:16:48;24.53;;;9.03;;
68800;SDS011;55784;50.734;7.086;2023-03-09T05:19:16;27.40;;;9.75;;
68800;SDS011;55784;50.734;7.086;2023-03-09T05:21:42;28.05;;;10.50;;
68800;SDS011;55784;50.734;7.086;2023-03-09T05:24:07;29.73;;;10.70;;
68800;SDS011;55784;50.734;7.086;2023-03-09T05:26:32;30.23;;;10.40;;
68800;SDS011;55784;50.734;7.086;2023-03-09T05:28:57;26.33;;;9.97;;
68800;SDS011;55784;50.734;7.086;2023-03-09T05:31:23;28.20;;;9.80;;
68800;SDS011;55784;50.734;7.086;2023-03-09T05:33:48;33.07;;;11.40;;
68800;SDS011;55784;50.734;7.086;2023-03-09T05:36:18;30.97;;;10.57;;
68800;SDS011;55784;50.734;7.086;2023-03-09T05:38:44;31.50;;;10.85;;
68800;SDS011;55784;50.734;7.086;2023-03-09T05:41:10;31.67;;;11.25;;
68800;SDS011;55784;50.734;7.086;2023-03-09T05:43:36;31.10;;;10.60;;
68800;SDS011;55784;50.734;7.086;2023-03-09T05:46:01;31.10;;;10.30;;
68800;SDS011;55784;50.734;7.086;2023-03-09T05:48:27;32.22;;;10.98;;
68800;SDS011;55784;50.734;7.086;2023-03-09T05:50:52;33.73;;;11.13;;
68800;SDS011;55784;50.734;7.086;2023-03-09T05:53:18;32.90;;;11.23;;
68800;SDS011;55784;50.734;7.086;2023-03-09T05:55:43;34.30;;;11.13;;
68800;SDS011;55784;50.734;7.086;2023-03-09T05:58:09;30.23;;;10.67;;
68800;SDS011;55784;50.734;7.086;2023-03-09T06:00:34;30.60;;;10.27;;
68800;SDS011;55784;50.734;7.086;2023-03-09T06:02:59;32.35;;;11.43;;
68800;SDS011;55784;50.734;7.086;2023-03-09T06:05:25;36.80;;;12.23;;
68800;SDS011;55784;50.734;7.086;2023-03-09T06:07:50;38.87;;;13.77;;
68800;SDS011;55784;50.734;7.086;2023-03-09T06:10:16;41.33;;;12.95;;
68800;SDS011;55784;50.734;7.086;2023-03-09T06:12:42;39.57;;;13.13;;
68800;SDS011;55784;50.734;7.086;2023-03-09T06:15:07;42.13;;;12.90;;
68800;SDS011;55784;50.734;7.086;2023-03-09T06:17:33;37.10;;;11.30;;
68800;SDS011;55784;50.734;7.086;2023-03-09T06:20:02;40.90;;;11.95;;
68800;SDS011;55784;50.734;7.086;2023-03-09T06:22:29;37.75;;;10.57;;
68800;SDS011;55784;50.734;7.086;2023-03-09T06:24:58;35.85;;;10.23;;
68800;SDS011;55784;50.734;7.086;2023-03-09T06:27:24;41.90;;;11.82;;
68800;SDS011;55784;50.734;7.086;2023-03-09T06:29:51;41.73;;;12.30;;
68800;SDS011;55784;50.734;7.086;2023-03-09T06:32:18;39.75;;;11.40;;
68800;SDS011;55784;50.734;7.086;2023-03-09T06:34:44;36.07;;;10.67;;
68800;SDS011;55784;50.734;7.086;2023-03-09T06:37:09;36.17;;;10.63;;
68800;SDS011;55784;50.734;7.086;2023-03-09T06:39:38;36.83;;;10.43;;
68800;SDS011;55784;50.734;7.086;2023-03-09T06:42:11;34.17;;;10.27;;
68800;SDS011;55784;50.734;7.086;2023-03-09T06:44:36;30.65;;;9.68;;
68800;SDS011;55784;50.734;7.086;2023-03-09T06:47:01;32.00;;;9.70;;
68800;SDS011;55784;50.734;7.086;2023-03-09T06:49:26;33.43;;;10.87;;
68800;SDS011;55784;50.734;7.086;2023-03-09T06:51:52;29.70;;;9.40;;
68800;SDS011;55784;50.734;7.086;2023-03-09T06:54:17;33.70;;;10.80;;
68800;SDS011;55784;50.734;7.086;2023-03-09T06:56:43;32.17;;;9.90;;
68800;SDS011;55784;50.734;7.086;2023-03-09T06:59:08;34.40;;;10.47;;
68800;SDS011;55784;50.734;7.086;2023-03-09T07:01:33;35.97;;;11.40;;
68800;SDS011;55784;50.734;7.086;2023-03-09T07:03:59;37.60;;;10.97;;
68800;SDS011;55784;50.734;7.086;2023-03-09T07:06:24;31.60;;;10.20;;
68800;SDS011;55784;50.734;7.086;2023-03-09T07:08:50;28.73;;;9.77;;
68800;SDS011;55784;50.734;7.086;2023-03-09T07:11:17;26.47;;;9.27;;
68800;SDS011;55784;50.734;7.086;2023-03-09T07:13:43;27.85;;;9.55;;
68800;SDS011;55784;50.734;7.086;2023-03-09T07:16:09;27.50;;;9.17;;
68800;SDS011;55784;50.734;7.086;2023-03-09T07:18:35;23.75;;;9.32;;
68800;SDS011;55784;50.734;7.086;2023-03-09T07:21:01;21.37;;;7.63;;
68800;SDS011;55784;50.734;7.086;2023-03-09T07:23:28;26.00;;;8.40;;
68800;SDS011;55784;50.734;7.086;2023-03-09T07:25:54;25.92;;;9.57;;
68800;SDS011;55784;50.734;7.086;2023-03-09T07:28:23;27.95;;;9.80;;
68800;SDS011;55784;50.734;7.086;2023-03-09T07:30:49;31.83;;;10.10;;
68800;SDS011;55784;50.734;7.086;2023-03-09T07:33:15;25.35;;;8.63;;
68800;SDS011;55784;50.734;7.086;2023-03-09T07:35:41;29.37;;;9.63;;
68800;SDS011;55784;50.734;7.086;2023-03-09T07:38:06;27.23;;;8.77;;
68800;SDS011;55784;50.734;7.086;2023-03-09T07:40:32;29.83;;;10.07;;
68800;SDS011;55784;50.734;7.086;2023-03-09T07:42:57;31.67;;;9.83;;
68800;SDS011;55784;50.734;7.086;2023-03-09T07:45:22;25.08;;;8.55;;
68800;SDS011;55784;50.734;7.086;2023-03-09T07:47:48;29.98;;;9.70;;
68800;SDS011;55784;50.734;7.086;2023-03-09T07:50:14;27.27;;;9.00;;
68800;SDS011;55784;50.734;7.086;2023-03-09T07:52:40;26.27;;;8.57;;
68800;SDS011;55784;50.734;7.086;2023-03-09T07:55:06;26.00;;;8.65;;
68800;SDS011;55784;50.734;7.086;2023-03-09T07:57:33;26.70;;;8.83;;
68800;SDS011;55784;50.734;7.086;2023-03-09T07:59:58;24.23;;;8.43;;
68800;SDS011;55784;50.734;7.086;2023-03-09T08:02:24;24.73;;;8.13;;
68800;SDS011;55784;50.734;7.086;2023-03-09T08:04:50;25.07;;;8.40;;
68800;SDS011;55784;50.734;7.086;2023-03-09T08:07:15;24.27;;;7.90;;
68800;SDS011;55784;50.734;7.086;2023-03-09T08:09:41;23.35;;;7.70;;
68800;SDS011;55784;50.734;7.086;2023-03-09T08:12:10;24.23;;;8.27;;
68800;SDS011;55784;50.734;7.086;2023-03-09T08:14:35;23.23;;;8.10;;
68800;SDS011;55784;50.734;7.086;2023-03-09T08:17:00;20.97;;;7.47;;
68800;SDS011;55784;50.734;7.086;2023-03-09T08:19:27;23.33;;;7.35;;
68800;SDS011;55784;50.734;7.086;2023-03-09T08:21:53;22.10;;;7.80;;
68800;SDS011;55784;50.734;7.086;2023-03-09T08:24:18;24.30;;;7.43;;
68800;SDS011;55784;50.734;7.086;2023-03-09T08:26:44;22.35;;;7.35;;
68800;SDS011;55784;50.734;7.086;2023-03-09T08:29:09;22.52;;;7.35;;
68800;SDS011;55784;50.734;7.086;2023-03-09T08:31:35;22.20;;;7.17;;
68800;SDS011;55784;50.734;7.086;2023-03-09T08:34:01;20.58;;;7.75;;
68800;SDS011;55784;50.734;7.086;2023-03-09T08:36:28;22.73;;;8.00;;
68800;SDS011;55784;50.734;7.086;2023-03-09T08:38:53;21.87;;;7.63;;
68800;SDS011;55784;50.734;7.086;2023-03-09T08:41:19;22.67;;;7.83;;
68800;SDS011;55784;50.734;7.086;2023-03-09T08:43:45;18.77;;;6.90;;
68800;SDS011;55784;50.734;7.086;2023-03-09T08:46:11;23.47;;;8.17;;
68800;SDS011;55784;50.734;7.086;2023-03-09T08:48:37;19.38;;;7.30;;
68800;SDS011;55784;50.734;7.086;2023-03-09T08:51:03;19.80;;;6.80;;
68800;SDS011;55784;50.734;7.086;2023-03-09T08:53:31;22.17;;;7.60;;
68800;SDS011;55784;50.734;7.086;2023-03-09T08:56:07;20.27;;;6.55;;
68800;SDS011;55784;50.734;7.086;2023-03-09T08:58:34;21.17;;;7.65;;
68800;SDS011;55784;50.734;7.086;2023-03-09T09:01:01;18.00;;;6.85;;
68800;SDS011;55784;50.734;7.086;2023-03-09T09:03:28;20.20;;;7.17;;
68800;SDS011;55784;50.734;7.086;2023-03-09T09:05:54;18.30;;;6.93;;
68800;SDS011;55784;50.734;7.086;2023-03-09T09:08:20;17.73;;;6.93;;
68800;SDS011;55784;50.734;7.086;2023-03-09T09:10:45;18.60;;;6.40;;
68800;SDS011;55784;50.734;7.086;2023-03-09T09:13:11;17.13;;;6.47;;
68800;SDS011;55784;50.734;7.086;2023-03-09T09:15:36;17.87;;;6.70;;
68800;SDS011;55784;50.734;7.086;2023-03-09T09:18:04;17.67;;;6.55;;
68800;SDS011;55784;50.734;7.086;2023-03-09T09:20:30;15.95;;;6.60;;
68800;SDS011;55784;50.734;7.086;2023-03-09T09:22:55;15.83;;;6.03;;
68800;SDS011;55784;50.734;7.086;2023-03-09T09:25:20;17.83;;;7.10;;
68800;SDS011;55784;50.734;7.086;2023-03-09T09:27:48;16.75;;;6.45;;
68800;SDS011;55784;50.734;7.086;2023-03-09T09:30:15;17.93;;;6.47;;
68800;SDS011;55784;50.734;7.086;2023-03-09T09:32:41;15.75;;;6.13;;
68800;SDS011;55784;50.734;7.086;2023-03-09T09:35:06;15.73;;;6.43;;
68800;SDS011;55784;50.734;7.086;2023-03-09T09:37:32;15.63;;;6.28;;
68800;SDS011;55784;50.734;7.086;2023-03-09T09:39:58;13.60;;;5.50;;
68800;SDS011;55784;50.734;7.086;2023-03-09T09:44:49;13.13;;;5.53;;
68800;SDS011;55784;50.734;7.086;2023-03-09T09:47:18;12.07;;;4.70;;
68800;SDS011;55784;50.734;7.086;2023-03-09T09:49:48;10.82;;;4.63;;
68800;SDS011;55784;50.734;7.086;2023-03-09T09:52:19;12.43;;;5.10;;
68800;SDS011;55784;50.734;7.086;2023-03-09T09:55:13;10.95;;;4.30;;
68800;SDS011;55784;50.734;7.086;2023-03-09T09:57:53;10.10;;;4.10;;
68800;SDS011;55784;50.734;7.086;2023-03-09T10:00:41;9.37;;;3.63;;
68800;SDS011;55784;50.734;7.086;2023-03-09T10:16:46;6.63;;;2.15;;
68800;SDS011;55784;50.734;7.086;2023-03-09T10:19:17;8.02;;;2.60;;
68800;SDS011;55784;50.734;7.086;2023-03-09T10:21:49;6.70;;;2.20;;
68800;SDS011;55784;50.734;7.086;2023-03-09T10:24:35;7.88;;;2.50;;
68800;SDS011;55784;50.734;7.086;2023-03-09T10:29:45;7.13;;;2.70;;
68800;SDS011;55784;50.734;7.086;2023-03-09T10:34:54;8.05;;;2.80;;
68800;SDS011;55784;50.734;7.086;2023-03-09T10:37:32;7.05;;;2.53;;
68800;SDS011;55784;50.734;7.086;2023-03-09T10:40:03;7.60;;;2.50;;
68800;SDS011;55784;50.734;7.086;2023-03-09T10:42:34;7.32;;;2.50;;
68800;SDS011;55784;50.734;7.086;2023-03-09T10:45:14;6.68;;;2.33;;
68800;SDS011;55784;50.734;7.086;2023-03-09T10:48:05;5.60;;;2.05;;
68800;SDS011;55784;50.734;7.086;2023-03-09T10:50:40;6.97;;;2.30;;
68800;SDS011;55784;50.734;7.086;2023-03-09T10:53:44;7.13;;;2.20;;
68800;SDS011;55784;50.734;7.086;2023-03-09T10:56:26;6.75;;;2.28;;
68800;SDS011;55784;50.734;7.086;2023-03-09T11:01:34;6.50;;;2.40;;
68800;SDS011;55784;50.734;7.086;2023-03-09T11:04:46;6.45;;;2.40;;
68800;SDS011;55784;50.734;7.086;2023-03-09T11:06:56;7.17;;;2.33;;
68800;SDS011;55784;50.734;7.086;2023-03-09T11:14:47;6.90;;;2.50;;
68800;SDS011;55784;50.734;7.086;2023-03-09T11:22:38;6.65;;;2.60;;
68800;SDS011;55784;50.734;7.086;2023-03-09T11:25:16;7.72;;;2.85;;
68800;SDS011;55784;50.734;7.086;2023-03-09T11:28:00;7.90;;;3.15;;
68800;SDS011;55784;50.734;7.086;2023-03-09T11:30:30;7.10;;;2.80;;
68800;SDS011;55784;50.734;7.086;2023-03-09T11:32:56;7.47;;;2.80;;
68800;SDS011;55784;50.734;7.086;2023-03-09T11:35:22;7.90;;;3.20;;
68800;SDS011;55784;50.734;7.086;2023-03-09T11:40:28;8.52;;;3.00;;
68800;SDS011;55784;50.734;7.086;2023-03-09T11:43:07;7.18;;;3.03;;
68800;SDS011;55784;50.734;7.086;2023-03-09T11:45:41;9.43;;;4.53;;
68800;SDS011;55784;50.734;7.086;2023-03-09T11:48:12;10.50;;;4.10;;
68800;SDS011;55784;50.734;7.086;2023-03-09T11:50:43;7.32;;;2.90;;
68800;SDS011;55784;50.734;7.086;2023-03-09T11:53:11;7.95;;;2.70;;
68800;SDS011;55784;50.734;7.086;2023-03-09T11:55:42;6.43;;;2.65;;
68800;SDS011;55784;50.734;7.086;2023-03-09T11:58:13;8.38;;;2.75;;
68800;SDS011;55784;50.734;7.086;2023-03-09T12:00:44;7.15;;;2.63;;
68800;SDS011;55784;50.734;7.086;2023-03-09T12:03:14;7.10;;;2.78;;
68800;SDS011;55784;50.734;7.086;2023-03-09T12:05:45;7.85;;;2.80;;
68800;SDS011;55784;50.734;7.086;2023-03-09T12:08:16;6.90;;;2.83;;
68800;SDS011;55784;50.734;7.086;2023-03-09T12:10:51;6.65;;;2.70;;
68800;SDS011;55784;50.734;7.086;2023-03-09T12:13:23;7.82;;;3.10;;
68800;SDS011;55784;50.734;7.086;2023-03-09T12:15:58;8.27;;;3.17;;
68800;SDS011;55784;50.734;7.086;2023-03-09T12:18:37;8.10;;;3.45;;
68800;SDS011;55784;50.734;7.086;2023-03-09T12:21:08;8.50;;;3.25;;
68800;SDS011;55784;50.734;7.086;2023-03-09T12:26:02;8.20;;;3.70;;
68800;SDS011;55784;50.734;7.086;2023-03-09T12:28:28;8.88;;;3.83;;
68800;SDS011;55784;50.734;7.086;2023-03-09T12:30:55;8.93;;;3.80;;
68800;SDS011;55784;50.734;7.086;2023-03-09T12:36:28;8.40;;;3.80;;
68800;SDS011;55784;50.734;7.086;2023-03-09T12:47:20;8.57;;;3.90;;
68800;SDS011;55784;50.734;7.086;2023-03-09T12:49:54;10.77;;;4.13;;
68800;SDS011;55784;50.734;7.086;2023-03-09T12:57:42;8.23;;;3.65;;
68800;SDS011;55784;50.734;7.086;2023-03-09T13:02:53;8.20;;;3.43;;
68800;SDS011;55784;50.734;7.086;2023-03-09T13:07:52;10.68;;;3.95;;
68800;SDS011;55784;50.734;7.086;2023-03-09T13:10:25;8.52;;;3.38;;
68800;SDS011;55784;50.734;7.086;2023-03-09T13:29:33;10.70;;;4.10;;
68800;SDS011;55784;50.734;7.086;2023-03-09T13:32:01;9.82;;;4.22;;
68800;SDS011;55784;50.734;7.086;2023-03-09T13:34:33;13.02;;;5.80;;
68800;SDS011;55784;50.734;7.086;2023-03-09T13:37:01;11.43;;;4.60;;
68800;SDS011;55784;50.734;7.086;2023-03-09T13:39:32;16.90;;;7.97;;
68800;SDS011;55784;50.734;7.086;2023-03-09T13:41:59;9.70;;;3.80;;
68800;SDS011;55784;50.734;7.086;2023-03-09T13:44:28;9.55;;;3.88;;
68800;SDS011;55784;50.734;7.086;2023-03-09T13:46:55;25.50;;;10.88;;
68800;SDS011;55784;50.734;7.086;2023-03-09T13:52:00;11.70;;;5.30;;
68800;SDS011;55784;50.734;7.086;2023-03-09T13:54:32;12.90;;;5.97;;
68800;SDS011;55784;50.734;7.086;2023-03-09T13:57:09;10.07;;;4.40;;
68800;SDS011;55784;50.734;7.086;2023-03-09T14:02:09;8.32;;;3.50;;
68800;SDS011;55784;50.734;7.086;2023-03-09T14:04:46;10.02;;;3.53;;
68800;SDS011;55784;50.734;7.086;2023-03-09T14:07:21;10.38;;;3.78;;
68800;SDS011;55784;50.734;7.086;2023-03-09T14:10:05;9.57;;;3.40;;
68800;SDS011;55784;50.734;7.086;2023-03-09T14:12:41;8.70;;;2.83;;
68800;SDS011;55784;50.734;7.086;2023-03-09T14:15:18;7.82;;;2.80;;
68800;SDS011;55784;50.734;7.086;2023-03-09T14:17:45;15.50;;;5.18;;
68800;SDS011;55784;50.734;7.086;2023-03-09T14:20:57;9.65;;;3.63;;
68800;SDS011;55784;50.734;7.086;2023-03-09T14:23:15;9.70;;;3.33;;
68800;SDS011;55784;50.734;7.086;2023-03-09T14:25:59;8.60;;;1.52;;
68800;SDS011;55784;50.734;7.086;2023-03-09T14:28:29;9.50;;;1.53;;
68800;SDS011;55784;50.734;7.086;2023-03-09T14:31:11;6.95;;;1.70;;
68800;SDS011;55784;50.734;7.086;2023-03-09T14:33:53;10.57;;;1.70;;
68800;SDS011;55784;50.734;7.086;2023-03-09T14:36:20;7.40;;;1.33;;
68800;SDS011;55784;50.734;7.086;2023-03-09T14:38:52;10.87;;;2.00;;
68800;SDS011;55784;50.734;7.086;2023-03-09T14:41:21;7.20;;;1.25;;
68800;SDS011;55784;50.734;7.086;2023-03-09T14:43:49;8.00;;;1.77;;
68800;SDS011;55784;50.734;7.086;2023-03-09T14:46:19;10.70;;;2.50;;
68800;SDS011;55784;50.734;7.086;2023-03-09T14:48:54;12.13;;;2.72;;
68800;SDS011;55784;50.734;7.086;2023-03-09T14:51:24;12.63;;;3.00;;
68800;SDS011;55784;50.734;7.086;2023-03-09T14:53:55;9.82;;;2.08;;
68800;SDS011;55784;50.734;7.086;2023-03-09T14:56:21;10.65;;;1.73;;
68800;SDS011;55784;50.734;7.086;2023-03-09T14:58:47;16.20;;;3.87;;
68800;SDS011;55784;50.734;7.086;2023-03-09T15:01:12;10.75;;;1.90;;
68800;SDS011;55784;50.734;7.086;2023-03-09T15:03:41;15.83;;;3.90;;
68800;SDS011;55784;50.734;7.086;2023-03-09T15:06:06;23.27;;;5.00;;
68800;SDS011;55784;50.734;7.086;2023-03-09T15:08:32;26.57;;;7.50;;
68800;SDS011;55784;50.734;7.086;2023-03-09T15:10:57;11.23;;;2.40;;
68800;SDS011;55784;50.734;7.086;2023-03-09T15:13:23;22.15;;;6.88;;
68800;SDS011;55784;50.734;7.086;2023-03-09T15:15:49;7.20;;;1.30;;
68800;SDS011;55784;50.734;7.086;2023-03-09T15:18:14;10.70;;;2.40;;
68800;SDS011;55784;50.734;7.086;2023-03-09T15:20:39;8.07;;;1.80;;
68800;SDS011;55784;50.734;7.086;2023-03-09T15:23:05;9.83;;;1.70;;
68800;SDS011;55784;50.734;7.086;2023-03-09T15:25:30;16.73;;;4.43;;
68800;SDS011;55784;50.734;7.086;2023-03-09T15:27:56;10.03;;;1.60;;
68800;SDS011;55784;50.734;7.086;2023-03-09T15:30:21;9.30;;;1.50;;
68800;SDS011;55784;50.734;7.086;2023-03-09T15:32:47;6.88;;;1.10;;
68800;SDS011;55784;50.734;7.086;2023-03-09T15:35:13;12.13;;;1.87;;
68800;SDS011;55784;50.734;7.086;2023-03-09T15:37:40;10.13;;;1.35;;
68800;SDS011;55784;50.734;7.086;2023-03-09T15:40:08;9.73;;;2.23;;
68800;SDS011;55784;50.734;7.086;2023-03-09T15:42:36;10.95;;;1.45;;
68800;SDS011;55784;50.734;7.086;2023-03-09T15:45:02;7.85;;;1.30;;
68800;SDS011;55784;50.734;7.086;2023-03-09T15:47:28;9.07;;;1.60;;
68800;SDS011;55784;50.734;7.086;2023-03-09T15:49:53;9.73;;;1.47;;
68800;SDS011;55784;50.734;7.086;2023-03-09T15:52:18;12.73;;;2.73;;
68800;SDS011;55784;50.734;7.086;2023-03-09T15:54:44;12.65;;;2.25;;
68800;SDS011;55784;50.734;7.086;2023-03-09T15:57:09;7.90;;;1.80;;
68800;SDS011;55784;50.734;7.086;2023-03-09T15:59:35;12.67;;;2.33;;
68800;SDS011;55784;50.734;7.086;2023-03-09T16:02:00;12.60;;;1.77;;
68800;SDS011;55784;50.734;7.086;2023-03-09T16:04:25;10.00;;;1.52;;
68800;SDS011;55784;50.734;7.086;2023-03-09T16:06:51;9.20;;;1.70;;
68800;SDS011;55784;50.734;7.086;2023-03-09T16:09:16;11.60;;;1.87;;
68800;SDS011;55784;50.734;7.086;2023-03-09T16:11:42;12.13;;;2.30;;
68800;SDS011;55784;50.734;7.086;2023-03-09T16:14:07;9.87;;;1.57;;
68800;SDS011;55784;50.734;7.086;2023-03-09T16:16:33;11.03;;;2.57;;